createdAt,value
2019-04-16T00:03:03.817Z,2.30
2019-04-16T00:05:40.559Z,2.40
2019-04-16T00:08:27.277Z,2.40
2019-04-16T00:10:55.950Z,2.60
2019-04-16T00:13:30.278Z,2.70
2019-04-16T00:16:01.397Z,2.70
2019-04-16T00:18:31.865Z,2.70
2019-04-16T00:21:10.033Z,2.70
2019-04-16T00:23:42.586Z,2.80
2019-04-16T00:26:12.864Z,2.70
2019-04-16T00:28:43.399Z,2.60
2019-04-16T00:31:14.157Z,2.60
2019-04-16T00:33:44.681Z,2.60
2019-04-16T00:36:15.358Z,2.50
2019-04-16T00:38:45.821Z,2.50
2019-04-16T00:41:16.294Z,2.60
2019-04-16T00:43:46.909Z,2.60
2019-04-16T00:46:17.380Z,2.60
2019-04-16T00:48:47.941Z,2.50
2019-04-16T00:51:18.542Z,2.40
2019-04-16T00:53:48.989Z,2.40
2019-04-16T00:56:19.395Z,2.30
2019-04-16T00:58:52.227Z,2.20
2019-04-16T01:01:20.761Z,2.20
2019-04-16T01:03:51.342Z,2.10
2019-04-16T01:06:21.817Z,2.10
2019-04-16T01:08:54.726Z,2.10
2019-04-16T01:11:22.971Z,1.90
2019-04-16T01:13:55.687Z,1.90
2019-04-16T01:16:24.215Z,1.90
2019-04-16T01:18:54.719Z,1.90
2019-04-16T01:21:25.105Z,1.90
2019-04-16T01:23:55.727Z,1.90
2019-04-16T01:26:26.891Z,1.80
2019-04-16T01:29:03.755Z,1.70
2019-04-16T01:32:35.013Z,1.70
2019-04-16T01:35:25.700Z,1.60
2019-04-16T01:38:03.377Z,1.60
2019-04-16T01:40:37.919Z,1.60
2019-04-16T01:43:08.576Z,1.70
2019-04-16T01:45:39.125Z,1.70
2019-04-16T01:48:09.576Z,1.80
2019-04-16T01:50:43.507Z,1.80
2019-04-16T01:55:42.412Z,1.90
2019-04-16T01:58:11.820Z,2.00
2019-04-16T02:00:42.281Z,2.00
2019-04-16T02:03:17.566Z,2.00
2019-04-16T02:05:43.569Z,2.00
2019-04-16T02:08:14.061Z,2.00
2019-04-16T02:10:44.484Z,2.00
2019-04-16T02:13:15.918Z,2.00
2019-04-16T02:15:45.630Z,2.00
2019-04-16T02:18:16.054Z,1.90
2019-04-16T02:20:46.710Z,1.90
2019-04-16T02:23:17.479Z,1.90
2019-04-16T02:25:48.555Z,2.00
2019-04-16T02:28:21.361Z,2.20
2019-04-16T02:30:48.824Z,2.30
2019-04-16T02:33:19.438Z,2.20
2019-04-16T02:35:50.087Z,2.40
2019-04-16T02:38:20.494Z,2.40
2019-04-16T02:40:52.936Z,2.40
2019-04-16T02:43:21.706Z,2.40
2019-04-16T02:45:56.700Z,2.40
2019-04-16T02:48:23.002Z,2.40
2019-04-16T02:50:57.038Z,2.30
2019-04-16T02:53:32.378Z,2.20
2019-04-16T02:56:06.860Z,2.20
2019-04-16T02:58:41.430Z,2.20
2019-04-16T03:01:21.875Z,2.10
2019-04-16T03:03:59.335Z,2.00
2019-04-16T03:06:31.882Z,2.10
2019-04-16T03:09:00.496Z,2.10
2019-04-16T03:11:31.577Z,2.10
2019-04-16T03:14:02.185Z,2.00
2019-04-16T03:16:44.779Z,2.00
2019-04-16T03:19:20.289Z,1.90
2019-04-16T03:21:49.609Z,1.80
2019-04-16T03:24:20.085Z,1.70
2019-04-16T03:26:51.196Z,1.80
2019-04-16T03:29:21.142Z,1.80
2019-04-16T03:31:57.600Z,1.80
2019-04-16T03:34:22.690Z,1.70
2019-04-16T03:39:22.717Z,1.60
2019-04-16T03:44:23.102Z,1.60
2019-04-16T03:46:53.633Z,1.50
2019-04-16T03:49:24.529Z,1.60
2019-04-16T03:51:54.569Z,1.50
2019-04-16T03:54:25.258Z,1.50
2019-04-16T03:56:55.853Z,1.40
2019-04-16T03:59:26.464Z,1.40
2019-04-16T04:01:57.109Z,1.40
2019-04-16T04:04:29.371Z,1.30
2019-04-16T04:06:58.474Z,1.20
2019-04-16T04:09:29.083Z,1.10
2019-04-16T04:11:59.696Z,1.00
2019-04-16T04:14:30.157Z,0.90
2019-04-16T04:17:05.205Z,0.90
2019-04-16T04:19:31.077Z,0.80
2019-04-16T04:22:01.557Z,0.80
2019-04-16T04:24:32.227Z,0.80
2019-04-16T04:27:02.739Z,0.90
2019-04-16T04:29:33.170Z,0.90
2019-04-16T04:32:04.325Z,1.00
2019-04-16T04:34:34.788Z,1.10
2019-04-16T04:37:05.265Z,1.20
2019-04-16T04:39:35.689Z,1.30
2019-04-16T04:42:06.423Z,1.40
2019-04-16T04:44:37.132Z,1.50
2019-04-16T04:47:07.787Z,1.70
2019-04-16T04:49:38.268Z,1.80
2019-04-16T04:52:13.614Z,2.00
2019-04-16T04:54:39.430Z,2.10
2019-04-16T04:57:10.084Z,2.20
2019-04-16T04:59:40.690Z,2.20
2019-04-16T05:02:14.328Z,2.30
2019-04-16T05:04:52.479Z,2.40
2019-04-16T05:07:21.569Z,2.50
2019-04-16T05:09:52.119Z,2.60
2019-04-16T05:12:22.654Z,2.60
2019-04-16T05:14:57.808Z,2.70
2019-04-16T05:17:26.614Z,2.70
2019-04-16T05:19:56.949Z,2.80
2019-04-16T05:22:27.554Z,2.90
2019-04-16T05:25:01.537Z,3.00
2019-04-16T05:27:29.507Z,3.10
2019-04-16T05:29:59.733Z,3.10
2019-04-16T05:32:34.026Z,3.30
2019-04-16T05:35:00.884Z,3.30
2019-04-16T05:37:31.468Z,3.30
2019-04-16T05:40:01.944Z,3.30
2019-04-16T05:42:32.789Z,3.50
2019-04-16T05:45:05.459Z,3.60
2019-04-16T05:47:33.773Z,3.70
2019-04-16T05:50:04.272Z,3.80
2019-04-16T05:52:35.885Z,3.90
2019-04-16T05:57:16.373Z,4.10
2019-04-16T05:59:46.969Z,4.10
2019-04-16T06:02:21.249Z,4.20
2019-04-16T06:04:55.603Z,4.20
2019-04-16T06:07:22.614Z,4.30
2019-04-16T06:09:53.538Z,4.40
2019-04-16T06:12:24.669Z,4.40
2019-04-16T06:15:00.656Z,4.50
2019-04-16T06:18:37.112Z,4.60
2019-04-16T06:21:12.470Z,4.60
2019-04-16T06:23:48.394Z,4.80
2019-04-16T06:26:24.245Z,4.90
2019-04-16T06:29:01.057Z,5.00
2019-04-16T06:31:41.345Z,5.00
2019-04-16T06:34:17.685Z,5.20
2019-04-16T06:36:53.222Z,5.30
2019-04-16T06:40:00.963Z,5.40
2019-04-16T06:42:32.553Z,5.60
2019-04-16T06:45:06.793Z,5.70
2019-04-16T06:47:47.142Z,5.80
2019-04-16T06:50:31.302Z,5.90
2019-04-16T06:52:58.437Z,6.10
2019-04-16T06:57:40.351Z,6.20
2019-04-16T07:00:26.248Z,6.40
2019-04-16T07:03:03.082Z,6.70
2019-04-16T07:10:13.211Z,6.90
2019-04-16T07:12:43.797Z,7.20
2019-04-16T07:15:14.469Z,7.40
2019-04-16T07:17:44.945Z,7.50
2019-04-16T07:20:15.628Z,7.70
2019-04-16T07:22:46.070Z,7.90
2019-04-16T07:25:16.975Z,8.10
2019-04-16T07:27:59.095Z,8.30
2019-04-16T07:30:38.488Z,8.50
2019-04-16T07:33:12.065Z,8.70
2019-04-16T07:35:46.585Z,8.80
2019-04-16T07:38:24.968Z,9.00
2019-04-16T07:42:11.804Z,9.10
2019-04-16T07:47:40.286Z,9.30
2019-04-16T07:50:15.601Z,9.50
2019-04-16T07:52:50.047Z,9.50
2019-04-16T07:55:38.258Z,9.60
2019-04-16T07:58:08.706Z,9.60
2019-04-16T08:00:41.286Z,9.80
2019-04-16T08:03:09.845Z,9.80
2019-04-16T08:05:41.103Z,9.60
2019-04-16T08:08:11.142Z,9.50
2019-04-16T08:10:41.564Z,9.50
2019-04-16T08:13:16.917Z,9.70
2019-04-16T08:15:47.529Z,9.80
2019-04-16T08:18:17.966Z,9.90
2019-04-16T08:21:00.303Z,9.90
2019-04-16T08:23:24.273Z,9.90
2019-04-16T08:26:02.781Z,10.00
2019-04-16T08:28:25.561Z,10.00
2019-04-16T08:30:56.120Z,10.30
2019-04-16T08:33:28.587Z,10.40
2019-04-16T08:35:57.160Z,10.60
2019-04-16T08:38:27.697Z,10.60
2019-04-16T08:40:58.311Z,10.70
2019-04-16T08:43:29.655Z,10.80
2019-04-16T08:45:59.413Z,11.00
2019-04-16T08:48:29.946Z,11.10
2019-04-16T08:51:00.380Z,11.00
2019-04-16T08:53:30.869Z,11.00
2019-04-16T08:56:01.458Z,11.00
2019-04-16T08:58:32.031Z,11.10
2019-04-16T09:01:03.033Z,11.00
2019-04-16T09:03:33.406Z,11.10
2019-04-16T09:06:04.566Z,11.40
2019-04-16T09:08:39.295Z,11.30
2019-04-16T09:11:22.603Z,11.00
2019-04-16T09:13:47.246Z,11.40
2019-04-16T09:16:15.410Z,11.50
2019-04-16T09:18:54.828Z,11.40
2019-04-16T09:21:27.781Z,11.30
2019-04-16T09:24:41.483Z,10.90
2019-04-16T09:27:15.360Z,10.90
2019-04-16T09:30:09.796Z,11.20
2019-04-16T09:33:13.355Z,11.20
2019-04-16T09:35:51.868Z,11.30
2019-04-16T09:38:30.179Z,11.30
2019-04-16T09:41:19.799Z,11.50
2019-04-16T09:43:53.767Z,11.60
2019-04-16T09:46:48.844Z,12.10
2019-04-16T09:48:54.563Z,12.30
2019-04-16T09:51:26.188Z,12.20
2019-04-16T09:53:56.009Z,12.30
2019-04-16T09:56:28.997Z,12.50
2019-04-16T09:59:00.056Z,12.70
2019-04-16T10:01:40.470Z,12.70
2019-04-16T10:04:12.962Z,12.60
2019-04-16T10:06:43.513Z,12.80
2019-04-16T10:09:19.829Z,12.80
2019-04-16T10:11:44.712Z,12.90
2019-04-16T10:14:15.382Z,12.80
2019-04-16T10:16:45.871Z,12.70
2019-04-16T10:19:16.611Z,12.70
2019-04-16T10:21:47.017Z,12.80
2019-04-16T10:24:55.372Z,12.90
2019-04-16T10:27:33.792Z,13.20
2019-04-16T10:30:05.078Z,13.30
2019-04-16T10:32:35.554Z,13.30
2019-04-16T10:35:06.120Z,13.30
2019-04-16T10:37:36.627Z,13.30
2019-04-16T10:40:14.426Z,13.60
2019-04-16T10:44:55.932Z,13.50
2019-04-16T10:47:35.548Z,13.80
2019-04-16T10:50:08.043Z,13.90
2019-04-16T10:52:48.344Z,14.10
2019-04-16T10:55:27.810Z,14.10
2019-04-16T10:58:06.183Z,14.20
2019-04-16T11:01:39.243Z,13.90
2019-04-16T11:04:19.733Z,13.80
2019-04-16T11:06:51.071Z,13.90
2019-04-16T11:09:21.574Z,13.90
2019-04-16T11:11:51.953Z,14.30
2019-04-16T11:14:22.506Z,14.70
2019-04-16T11:16:52.930Z,14.40
2019-04-16T11:19:23.449Z,13.80
2019-04-16T11:21:53.992Z,14.10
2019-04-16T11:24:25.909Z,14.60
2019-04-16T11:26:56.425Z,15.10
2019-04-16T11:29:26.930Z,15.40
2019-04-16T11:31:57.448Z,15.10
2019-04-16T11:34:28.040Z,14.40
2019-04-16T11:36:58.760Z,14.50
2019-04-16T11:39:29.243Z,14.70
2019-04-16T11:41:59.921Z,15.20
2019-04-16T11:44:30.506Z,15.30
2019-04-16T11:47:01.293Z,15.80
2019-04-16T11:52:01.671Z,16.40
2019-04-16T11:54:32.189Z,16.50
2019-04-16T11:57:02.991Z,16.60
2019-04-16T11:59:33.462Z,16.70
2019-04-16T12:02:08.012Z,16.60
2019-04-16T12:05:41.408Z,17.10
2019-04-16T12:08:20.845Z,17.20
2019-04-16T12:10:56.334Z,16.40
2019-04-16T12:13:38.023Z,15.70
2019-04-16T12:16:21.272Z,16.10
2019-04-16T12:19:29.765Z,17.00
2019-04-16T12:22:04.350Z,17.80
2019-04-16T12:26:48.845Z,17.30
2019-04-16T12:29:23.475Z,17.50
2019-04-16T12:32:30.236Z,18.00
2019-04-16T12:35:17.852Z,18.20
2019-04-16T12:37:53.181Z,17.80
2019-04-16T12:40:29.563Z,18.20
2019-04-16T12:43:06.111Z,19.00
2019-04-16T12:48:16.334Z,19.10
2019-04-16T12:51:08.968Z,19.10
2019-04-16T12:53:43.496Z,18.60
2019-04-16T12:58:21.080Z,18.80
2019-04-16T13:03:01.555Z,18.60
2019-04-16T13:05:38.023Z,19.00
2019-04-16T13:08:48.693Z,19.40
2019-04-16T13:11:37.621Z,19.30
2019-04-16T13:16:51.613Z,19.40
2019-04-16T13:19:27.057Z,19.90
2019-04-16T13:21:59.954Z,20.00
2019-04-16T13:24:38.119Z,19.70
2019-04-16T13:27:13.555Z,20.00
2019-04-16T13:29:43.905Z,20.10
2019-04-16T13:32:14.193Z,19.60
2019-04-16T13:37:14.136Z,18.90
2019-04-16T13:40:02.334Z,19.70
2019-04-16T13:42:32.546Z,20.40
2019-04-16T13:45:35.082Z,19.40
2019-04-16T13:48:15.698Z,19.90
2019-04-16T13:50:42.058Z,20.70
2019-04-16T13:53:36.502Z,20.60
2019-04-16T13:56:17.411Z,19.60
2019-04-16T13:58:48.314Z,18.90
2019-04-16T14:01:24.064Z,18.50
2019-04-16T14:03:56.477Z,18.90
2019-04-16T14:06:24.765Z,19.70
2019-04-16T14:08:55.186Z,20.40
2019-04-16T14:11:25.483Z,21.20
2019-04-16T14:13:55.898Z,21.20
2019-04-16T14:16:26.222Z,21.50
2019-04-16T14:18:56.537Z,21.70
2019-04-16T14:21:26.809Z,21.40
2019-04-16T14:23:57.175Z,20.50
2019-04-16T14:26:27.647Z,19.60
2019-04-16T14:31:28.246Z,18.80
2019-04-16T14:35:08.322Z,19.30
2019-04-16T14:37:38.662Z,19.60
2019-04-16T14:40:16.882Z,20.00
2019-04-16T14:42:47.470Z,20.40
2019-04-16T14:45:58.378Z,21.20
2019-04-16T14:48:20.974Z,22.10
2019-04-16T14:50:51.324Z,22.40
2019-04-16T14:53:26.699Z,22.30
2019-04-16T14:56:01.775Z,21.90
2019-04-16T14:58:50.969Z,20.80
2019-04-16T15:01:30.406Z,20.90
2019-04-16T15:04:05.904Z,20.80
2019-04-16T15:06:49.092Z,21.10
2019-04-16T15:09:25.652Z,21.50
2019-04-16T15:13:01.814Z,21.50
2019-04-16T15:15:36.793Z,21.40
2019-04-16T15:18:19.154Z,20.70
2019-04-16T15:21:58.398Z,20.90
2019-04-16T15:24:39.674Z,21.00
2019-04-16T15:27:14.913Z,20.90
2019-04-16T15:29:58.755Z,20.50
2019-04-16T15:32:37.786Z,20.30
2019-04-16T15:35:13.871Z,21.20
2019-04-16T15:37:46.418Z,21.50
2019-04-16T15:40:21.043Z,20.70
2019-04-16T15:43:13.485Z,20.50
2019-04-16T15:46:52.827Z,21.00
2019-04-16T15:49:26.532Z,21.50
2019-04-16T15:52:33.309Z,21.80
2019-04-16T15:55:08.589Z,21.70
2019-04-16T15:57:43.977Z,20.90
2019-04-16T16:00:19.437Z,20.60
2019-04-16T16:02:55.120Z,20.70
2019-04-16T16:05:30.837Z,20.90
2019-04-16T16:08:20.208Z,21.40
2019-04-16T16:10:53.901Z,20.20
2019-04-16T16:13:26.327Z,20.20
2019-04-16T16:15:54.762Z,20.00
2019-04-16T16:18:25.154Z,19.90
2019-04-16T16:20:55.437Z,20.00
2019-04-16T16:23:25.837Z,20.10
2019-04-16T16:25:56.203Z,20.20
2019-04-16T16:28:26.382Z,20.60
2019-04-16T16:30:58.399Z,20.00
2019-04-16T16:33:28.822Z,20.50
2019-04-16T16:36:00.218Z,20.40
2019-04-16T16:38:29.534Z,19.80
2019-04-16T16:40:59.899Z,19.60
2019-04-16T16:43:30.244Z,19.30
2019-04-16T16:50:38.140Z,19.20
2019-04-16T16:53:12.626Z,18.80
2019-04-16T16:55:47.659Z,18.30
2019-04-16T16:58:56.589Z,18.10
2019-04-16T17:01:46.062Z,17.90
2019-04-16T17:04:19.355Z,17.40
2019-04-16T17:06:49.645Z,17.10
2019-04-16T17:09:27.072Z,16.60
2019-04-16T17:11:57.251Z,15.80
2019-04-16T17:14:27.601Z,14.90
2019-04-16T17:17:11.887Z,14.10
2019-04-16T17:19:28.363Z,13.60
2019-04-16T17:21:58.661Z,13.20
2019-04-16T17:24:28.962Z,12.70
2019-04-16T17:26:59.385Z,12.30
2019-04-16T17:29:29.661Z,12.00
2019-04-16T17:32:00.102Z,11.80
2019-04-16T17:34:30.406Z,11.60
2019-04-16T17:37:00.724Z,11.50
2019-04-16T17:39:51.234Z,11.40
2019-04-16T17:42:25.869Z,11.30
2019-04-16T17:45:02.140Z,11.20
2019-04-16T17:47:39.374Z,11.10
2019-04-16T17:52:55.626Z,10.50
2019-04-16T17:56:29.741Z,10.10
2019-04-16T17:59:02.997Z,9.80
2019-04-16T18:01:43.427Z,9.40
2019-04-16T18:04:22.425Z,9.30
2019-04-16T18:07:01.069Z,9.20
2019-04-16T18:09:36.145Z,9.10
2019-04-16T18:12:16.980Z,9.10
2019-04-16T18:14:51.900Z,9.00
2019-04-16T18:17:46.298Z,8.90
2019-04-16T18:20:08.885Z,8.70
2019-04-16T18:22:46.062Z,8.50
2019-04-16T18:25:26.197Z,8.20
2019-04-16T18:28:04.372Z,8.10
2019-04-16T18:30:36.524Z,8.10
2019-04-16T18:33:15.338Z,8.10
2019-04-16T18:36:25.811Z,8.00
2019-04-16T18:39:03.988Z,8.00
2019-04-16T18:41:35.563Z,8.00
2019-04-16T18:44:28.910Z,7.90
2019-04-16T18:47:32.748Z,7.90
2019-04-16T18:50:05.735Z,7.90
2019-04-16T18:52:37.384Z,8.00
2019-04-16T18:55:07.184Z,8.20
2019-04-16T18:57:38.341Z,8.30
2019-04-16T19:00:12.507Z,8.50
2019-04-16T19:02:42.807Z,8.60
2019-04-16T19:05:13.490Z,8.60
2019-04-16T19:07:44.118Z,8.60
2019-04-16T19:10:14.624Z,8.60
2019-04-16T19:12:45.176Z,8.60
2019-04-16T19:15:15.678Z,8.70
2019-04-16T19:17:47.195Z,8.80
2019-04-16T19:20:18.404Z,8.90
2019-04-16T19:22:49.828Z,8.90
2019-04-16T19:25:18.876Z,8.90
2019-04-16T19:27:49.658Z,8.80
2019-04-16T19:30:22.755Z,8.80
2019-04-16T19:32:51.852Z,8.70
2019-04-16T19:35:22.818Z,8.70
2019-04-16T19:37:53.189Z,8.70
2019-04-16T19:40:23.580Z,8.70
2019-04-16T19:42:54.114Z,8.60
2019-04-16T19:45:24.657Z,8.70
2019-04-16T19:48:00.331Z,8.60
2019-04-16T19:50:25.643Z,8.60
2019-04-16T19:52:56.364Z,8.50
2019-04-16T19:55:26.959Z,8.50
2019-04-16T19:57:58.010Z,8.50
2019-04-16T20:00:27.887Z,8.40
2019-04-16T20:02:58.136Z,8.40
2019-04-16T20:05:28.899Z,8.20
2019-04-16T20:07:59.158Z,8.30
2019-04-16T20:10:29.653Z,8.20
2019-04-16T20:13:00.160Z,8.20
2019-04-16T20:15:30.765Z,8.20
2019-04-16T20:18:01.328Z,8.10
2019-04-16T20:20:32.058Z,8.00
2019-04-16T20:23:02.779Z,8.00
2019-04-16T20:25:33.244Z,8.00
2019-04-16T20:28:03.992Z,7.90
2019-04-16T20:30:34.170Z,7.90
2019-04-16T20:33:04.425Z,7.80
2019-04-16T20:35:34.662Z,7.70
2019-04-16T20:38:05.201Z,7.70
2019-04-16T20:40:36.081Z,7.60
2019-04-16T20:43:06.809Z,7.60
2019-04-16T20:45:36.973Z,7.50
2019-04-16T20:48:09.134Z,7.50
2019-04-16T20:50:37.445Z,7.40
2019-04-16T20:53:08.475Z,7.30
2019-04-16T20:55:38.225Z,7.10
2019-04-16T20:58:08.645Z,7.00
2019-04-16T21:00:42.480Z,6.80
2019-04-16T21:03:21.987Z,6.80
2019-04-16T21:05:57.435Z,7.10
2019-04-16T21:08:17.139Z,7.20
2019-04-16T21:10:44.985Z,7.40
2019-04-16T21:13:16.219Z,7.40
2019-04-16T21:15:46.015Z,7.30
2019-04-16T21:18:16.511Z,7.40
2019-04-16T21:20:50.898Z,7.40
2019-04-16T21:23:17.802Z,7.40
2019-04-16T21:25:48.837Z,7.30
2019-04-16T21:28:24.413Z,7.20
2019-04-16T21:30:59.956Z,7.10
2019-04-16T21:33:35.201Z,7.00
2019-04-16T21:36:06.357Z,6.90
2019-04-16T21:38:42.270Z,6.80
2019-04-16T21:41:12.417Z,6.70
2019-04-16T21:43:42.878Z,6.60
2019-04-16T21:46:13.686Z,6.50
2019-04-16T21:48:44.321Z,6.40
2019-04-16T21:51:19.054Z,6.20
2019-04-16T21:53:45.485Z,6.20
2019-04-16T21:56:15.841Z,6.00
2019-04-16T21:58:49.619Z,6.00
2019-04-16T22:01:22.313Z,5.90
2019-04-16T22:03:59.056Z,5.80
2019-04-16T22:06:29.510Z,5.80
2019-04-16T22:09:03.217Z,5.60
2019-04-16T22:11:30.847Z,5.50
2019-04-16T22:14:01.761Z,5.50
2019-04-16T22:16:32.256Z,5.40
2019-04-16T22:19:03.021Z,5.40
2019-04-16T22:21:33.444Z,5.40
2019-04-16T22:24:04.049Z,5.40
2019-04-16T22:26:35.236Z,5.30
2019-04-16T22:29:05.381Z,5.30
2019-04-16T22:31:35.905Z,5.30
2019-04-16T22:34:06.487Z,5.30
2019-04-16T22:36:56.570Z,5.30
2019-04-16T22:39:34.104Z,5.30
2019-04-16T22:42:13.542Z,5.30
2019-04-16T22:44:51.955Z,5.30
2019-04-16T22:47:26.548Z,5.30
2019-04-16T22:50:14.007Z,5.30
2019-04-16T22:52:27.817Z,5.30
2019-04-16T22:54:58.637Z,5.40
2019-04-16T22:57:30.931Z,5.40
2019-04-16T22:59:59.678Z,5.40
2019-04-16T23:02:30.862Z,5.30
2019-04-16T23:07:31.065Z,5.20
2019-04-16T23:10:01.909Z,5.10
2019-04-16T23:12:32.078Z,5.10
2019-04-16T23:15:02.733Z,5.00
2019-04-16T23:17:33.143Z,4.90
2019-04-16T23:20:03.903Z,4.80
2019-04-16T23:22:34.469Z,4.60
2019-04-16T23:25:05.019Z,4.50
2019-04-16T23:27:37.480Z,4.40
2019-04-16T23:30:06.725Z,4.40
2019-04-16T23:32:37.098Z,4.30
2019-04-16T23:35:11.081Z,4.20
2019-04-16T23:37:38.158Z,4.20
2019-04-16T23:40:11.090Z,4.20
2019-04-16T23:42:39.506Z,4.10
2019-04-16T23:47:49.718Z,4.20
2019-04-16T23:50:26.188Z,4.30
2019-04-16T23:53:03.773Z,4.40
2019-04-16T23:55:42.297Z,4.50
2019-04-16T23:58:16.920Z,4.50
